sensor_id;sensor_type;location;lat;lon;timestamp;temperature;humidity
1806;DHT22;901;48.142;11.516;2022-07-01T00:00:09;19.20;99.90
1806;DHT22;901;48.142;11.516;2022-07-01T00:02:37;19.20;99.90
1806;DHT22;901;48.142;11.516;2022-07-01T00:05:04;19.20;99.90
1806;DHT22;901;48.142;11.516;2022-07-01T00:07:32;19.20;99.90
1806;DHT22;901;48.142;11.516;2022-07-01T00:09:58;19.20;99.90
1806;DHT22;901;48.142;11.516;2022-07-01T00:12:25;19.20;99.90
1806;DHT22;901;48.142;11.516;2022-07-01T00:14:52;19.20;99.90
1806;DHT22;901;48.142;11.516;2022-07-01T00:17:19;19.20;99.90
1806;DHT22;901;48.142;11.516;2022-07-01T00:19:47;19.10;99.90
1806;DHT22;901;48.142;11.516;2022-07-01T00:22:15;19.20;99.90
1806;DHT22;901;48.142;11.516;2022-07-01T00:24:42;19.10;99.90
1806;DHT22;901;48.142;11.516;2022-07-01T00:27:11;19.10;99.90
1806;DHT22;901;48.142;11.516;2022-07-01T00:29:38;19.10;99.90
1806;DHT22;901;48.142;11.516;2022-07-01T00:32:05;19.10;99.90
1806;DHT22;901;48.142;11.516;2022-07-01T00:34:32;19.10;99.90
1806;DHT22;901;48.142;11.516;2022-07-01T00:37:02;19.20;99.90
1806;DHT22;901;48.142;11.516;2022-07-01T00:39:29;19.20;99.90
1806;DHT22;901;48.142;11.516;2022-07-01T00:41:58;19.20;99.90
1806;DHT22;901;48.142;11.516;2022-07-01T00:44:27;19.30;99.90
1806;DHT22;901;48.142;11.516;2022-07-01T00:46:54;19.30;99.90
1806;DHT22;901;48.142;11.516;2022-07-01T00:49:21;19.20;99.90
1806;DHT22;901;48.142;11.516;2022-07-01T00:51:48;19.20;99.90
1806;DHT22;901;48.142;11.516;2022-07-01T00:54:17;19.30;99.90
1806;DHT22;901;48.142;11.516;2022-07-01T00:56:44;19.20;99.90
1806;DHT22;901;48.142;11.516;2022-07-01T00:59:11;19.20;99.90
1806;DHT22;901;48.142;11.516;2022-07-01T01:01:38;19.00;99.90
1806;DHT22;901;48.142;11.516;2022-07-01T01:04:05;19.00;99.90
1806;DHT22;901;48.142;11.516;2022-07-01T01:06:33;19.00;99.90
1806;DHT22;901;48.142;11.516;2022-07-01T01:09:00;19.00;99.90
1806;DHT22;901;48.142;11.516;2022-07-01T01:11:28;19.00;99.90
1806;DHT22;901;48.142;11.516;2022-07-01T01:13:55;19.00;99.90
1806;DHT22;901;48.142;11.516;2022-07-01T01:16:23;19.00;99.90
1806;DHT22;901;48.142;11.516;2022-07-01T01:18:51;19.00;99.90
1806;DHT22;901;48.142;11.516;2022-07-01T01:21:19;19.00;99.90
1806;DHT22;901;48.142;11.516;2022-07-01T01:23:47;19.10;99.90
1806;DHT22;901;48.142;11.516;2022-07-01T01:26:19;19.10;99.90
1806;DHT22;901;48.142;11.516;2022-07-01T01:28:46;19.10;99.90
1806;DHT22;901;48.142;11.516;2022-07-01T01:31:14;19.20;99.90
1806;DHT22;901;48.142;11.516;2022-07-01T01:33:41;19.20;99.90
1806;DHT22;901;48.142;11.516;2022-07-01T01:36:08;19.20;99.90
1806;DHT22;901;48.142;11.516;2022-07-01T01:38:37;19.20;99.90
1806;DHT22;901;48.142;11.516;2022-07-01T01:41:04;19.20;99.90
1806;DHT22;901;48.142;11.516;2022-07-01T01:43:31;19.10;99.90
1806;DHT22;901;48.142;11.516;2022-07-01T01:46:01;19.00;99.90
1806;DHT22;901;48.142;11.516;2022-07-01T01:48:28;19.00;99.90
1806;DHT22;901;48.142;11.516;2022-07-01T01:50:55;18.90;99.90
1806;DHT22;901;48.142;11.516;2022-07-01T01:53:22;18.90;99.90
1806;DHT22;901;48.142;11.516;2022-07-01T01:55:50;18.90;99.90
1806;DHT22;901;48.142;11.516;2022-07-01T01:58:17;18.80;99.90
1806;DHT22;901;48.142;11.516;2022-07-01T02:00:44;18.80;99.90
1806;DHT22;901;48.142;11.516;2022-07-01T02:03:11;18.80;99.90
1806;DHT22;901;48.142;11.516;2022-07-01T02:05:38;18.80;99.90
1806;DHT22;901;48.142;11.516;2022-07-01T02:08:05;18.80;99.90
1806;DHT22;901;48.142;11.516;2022-07-01T02:10:32;18.70;99.90
1806;DHT22;901;48.142;11.516;2022-07-01T02:13:00;18.70;99.90
1806;DHT22;901;48.142;11.516;2022-07-01T02:15:27;18.70;99.90
1806;DHT22;901;48.142;11.516;2022-07-01T02:17:54;18.70;99.90
1806;DHT22;901;48.142;11.516;2022-07-01T02:20:22;18.60;99.90
1806;DHT22;901;48.142;11.516;2022-07-01T02:22:49;18.60;99.90
1806;DHT22;901;48.142;11.516;2022-07-01T02:25:17;18.60;99.90
1806;DHT22;901;48.142;11.516;2022-07-01T02:27:44;18.60;99.90
1806;DHT22;901;48.142;11.516;2022-07-01T02:30:13;18.60;99.90
1806;DHT22;901;48.142;11.516;2022-07-01T02:32:40;18.60;99.90
1806;DHT22;901;48.142;11.516;2022-07-01T02:35:07;18.70;99.90
1806;DHT22;901;48.142;11.516;2022-07-01T02:37:34;18.70;99.90
1806;DHT22;901;48.142;11.516;2022-07-01T02:40:02;18.60;99.90
1806;DHT22;901;48.142;11.516;2022-07-01T02:42:28;18.60;99.90
1806;DHT22;901;48.142;11.516;2022-07-01T02:45:00;18.70;99.90
1806;DHT22;901;48.142;11.516;2022-07-01T02:47:32;18.60;99.90
1806;DHT22;901;48.142;11.516;2022-07-01T02:49:59;18.70;99.90
1806;DHT22;901;48.142;11.516;2022-07-01T02:52:26;18.70;99.90
1806;DHT22;901;48.142;11.516;2022-07-01T02:54:53;18.70;99.90
1806;DHT22;901;48.142;11.516;2022-07-01T02:57:20;18.70;99.90
1806;DHT22;901;48.142;11.516;2022-07-01T02:59:47;18.60;99.90
1806;DHT22;901;48.142;11.516;2022-07-01T03:02:16;18.60;99.90
1806;DHT22;901;48.142;11.516;2022-07-01T03:04:45;18.60;99.90
1806;DHT22;901;48.142;11.516;2022-07-01T03:07:12;18.70;99.90
1806;DHT22;901;48.142;11.516;2022-07-01T03:09:39;18.60;99.90
1806;DHT22;901;48.142;11.516;2022-07-01T03:12:07;18.70;99.90
1806;DHT22;901;48.142;11.516;2022-07-01T03:14:47;18.70;99.90
1806;DHT22;901;48.142;11.516;2022-07-01T03:17:14;18.70;99.90
1806;DHT22;901;48.142;11.516;2022-07-01T03:19:41;18.70;99.90
1806;DHT22;901;48.142;11.516;2022-07-01T03:22:09;18.70;99.90
1806;DHT22;901;48.142;11.516;2022-07-01T03:24:36;18.70;99.90
1806;DHT22;901;48.142;11.516;2022-07-01T03:27:04;18.70;99.90
1806;DHT22;901;48.142;11.516;2022-07-01T03:29:30;18.70;99.90
1806;DHT22;901;48.142;11.516;2022-07-01T03:31:57;18.70;99.90
1806;DHT22;901;48.142;11.516;2022-07-01T03:34:24;18.70;99.90
1806;DHT22;901;48.142;11.516;2022-07-01T03:36:51;18.70;99.90
1806;DHT22;901;48.142;11.516;2022-07-01T03:39:19;18.70;99.90
1806;DHT22;901;48.142;11.516;2022-07-01T03:41:46;18.70;99.90
1806;DHT22;901;48.142;11.516;2022-07-01T03:44:13;18.60;99.90
1806;DHT22;901;48.142;11.516;2022-07-01T03:46:40;18.70;99.90
1806;DHT22;901;48.142;11.516;2022-07-01T03:49:07;18.60;99.90
1806;DHT22;901;48.142;11.516;2022-07-01T03:51:34;18.60;99.90
1806;DHT22;901;48.142;11.516;2022-07-01T03:54:00;18.70;99.90
1806;DHT22;901;48.142;11.516;2022-07-01T03:57:02;18.70;99.90
1806;DHT22;901;48.142;11.516;2022-07-01T03:59:33;18.70;99.90
1806;DHT22;901;48.142;11.516;2022-07-01T04:02:01;18.70;99.90
1806;DHT22;901;48.142;11.516;2022-07-01T04:04:29;18.80;99.90
1806;DHT22;901;48.142;11.516;2022-07-01T04:06:58;18.80;99.90
1806;DHT22;901;48.142;11.516;2022-07-01T04:09:25;18.80;99.90
1806;DHT22;901;48.142;11.516;2022-07-01T04:11:52;18.90;99.90
1806;DHT22;901;48.142;11.516;2022-07-01T04:14:21;18.90;99.90
1806;DHT22;901;48.142;11.516;2022-07-01T04:16:49;18.90;99.90
1806;DHT22;901;48.142;11.516;2022-07-01T04:19:17;19.00;99.90
1806;DHT22;901;48.142;11.516;2022-07-01T04:21:44;19.00;99.90
1806;DHT22;901;48.142;11.516;2022-07-01T04:24:28;19.00;99.90
1806;DHT22;901;48.142;11.516;2022-07-01T04:26:58;19.00;99.90
1806;DHT22;901;48.142;11.516;2022-07-01T04:29:26;19.00;99.90
1806;DHT22;901;48.142;11.516;2022-07-01T04:31:54;19.00;99.90
1806;DHT22;901;48.142;11.516;2022-07-01T04:34:22;19.00;99.90
1806;DHT22;901;48.142;11.516;2022-07-01T04:36:48;19.10;99.90
1806;DHT22;901;48.142;11.516;2022-07-01T04:39:15;19.10;99.90
1806;DHT22;901;48.142;11.516;2022-07-01T04:41:42;19.10;99.90
1806;DHT22;901;48.142;11.516;2022-07-01T04:44:29;19.20;99.90
1806;DHT22;901;48.142;11.516;2022-07-01T04:46:56;19.20;99.90
1806;DHT22;901;48.142;11.516;2022-07-01T04:49:23;19.30;99.90
1806;DHT22;901;48.142;11.516;2022-07-01T04:51:51;19.30;99.90
1806;DHT22;901;48.142;11.516;2022-07-01T04:54:18;19.30;99.90
1806;DHT22;901;48.142;11.516;2022-07-01T04:56:45;19.30;99.90
1806;DHT22;901;48.142;11.516;2022-07-01T04:59:12;19.40;99.90
1806;DHT22;901;48.142;11.516;2022-07-01T05:01:41;19.30;99.90
1806;DHT22;901;48.142;11.516;2022-07-01T05:04:08;19.30;99.90
1806;DHT22;901;48.142;11.516;2022-07-01T05:06:35;19.10;99.90
1806;DHT22;901;48.142;11.516;2022-07-01T05:09:02;19.20;99.90
1806;DHT22;901;48.142;11.516;2022-07-01T05:11:29;19.10;99.90
1806;DHT22;901;48.142;11.516;2022-07-01T05:13:56;19.10;99.90
1806;DHT22;901;48.142;11.516;2022-07-01T05:16:22;19.20;99.90
1806;DHT22;901;48.142;11.516;2022-07-01T05:18:51;19.20;99.90
1806;DHT22;901;48.142;11.516;2022-07-01T05:21:35;19.30;99.90
1806;DHT22;901;48.142;11.516;2022-07-01T05:24:19;19.50;99.90
1806;DHT22;901;48.142;11.516;2022-07-01T05:26:46;19.60;99.90
1806;DHT22;901;48.142;11.516;2022-07-01T05:29:13;19.60;99.90
1806;DHT22;901;48.142;11.516;2022-07-01T05:31:41;19.80;99.90
1806;DHT22;901;48.142;11.516;2022-07-01T05:34:09;19.90;99.90
1806;DHT22;901;48.142;11.516;2022-07-01T05:36:36;20.00;99.90
1806;DHT22;901;48.142;11.516;2022-07-01T05:39:03;20.10;99.90
1806;DHT22;901;48.142;11.516;2022-07-01T05:41:30;20.00;99.90
1806;DHT22;901;48.142;11.516;2022-07-01T05:43:58;19.90;99.90
1806;DHT22;901;48.142;11.516;2022-07-01T05:46:24;19.70;99.90
1806;DHT22;901;48.142;11.516;2022-07-01T05:48:51;19.50;99.90
1806;DHT22;901;48.142;11.516;2022-07-01T05:51:19;19.30;99.90
1806;DHT22;901;48.142;11.516;2022-07-01T05:53:46;19.30;99.90
1806;DHT22;901;48.142;11.516;2022-07-01T05:56:13;19.30;99.90
1806;DHT22;901;48.142;11.516;2022-07-01T05:58:41;19.40;99.90
1806;DHT22;901;48.142;11.516;2022-07-01T06:01:08;19.40;99.90
1806;DHT22;901;48.142;11.516;2022-07-01T06:03:34;19.50;99.90
1806;DHT22;901;48.142;11.516;2022-07-01T06:06:01;19.50;99.90
1806;DHT22;901;48.142;11.516;2022-07-01T06:08:30;19.60;99.90
1806;DHT22;901;48.142;11.516;2022-07-01T06:10:57;19.90;99.90
1806;DHT22;901;48.142;11.516;2022-07-01T06:13:23;20.20;99.90
1806;DHT22;901;48.142;11.516;2022-07-01T06:15:51;21.00;99.90
1806;DHT22;901;48.142;11.516;2022-07-01T06:18:17;21.80;99.90
1806;DHT22;901;48.142;11.516;2022-07-01T06:20:44;22.50;99.90
1806;DHT22;901;48.142;11.516;2022-07-01T06:23:11;22.80;99.90
1806;DHT22;901;48.142;11.516;2022-07-01T06:25:39;22.50;99.90
1806;DHT22;901;48.142;11.516;2022-07-01T06:28:06;21.90;99.90
1806;DHT22;901;48.142;11.516;2022-07-01T06:30:33;21.30;99.90
1806;DHT22;901;48.142;11.516;2022-07-01T06:33:00;21.00;99.90
1806;DHT22;901;48.142;11.516;2022-07-01T06:35:27;20.60;99.90
1806;DHT22;901;48.142;11.516;2022-07-01T06:37:53;20.20;99.90
1806;DHT22;901;48.142;11.516;2022-07-01T06:40:20;19.90;99.90
1806;DHT22;901;48.142;11.516;2022-07-01T06:42:48;19.70;99.90
1806;DHT22;901;48.142;11.516;2022-07-01T06:45:16;19.60;99.90
1806;DHT22;901;48.142;11.516;2022-07-01T06:47:43;19.50;99.90
1806;DHT22;901;48.142;11.516;2022-07-01T06:50:10;19.70;99.90
1806;DHT22;901;48.142;11.516;2022-07-01T06:52:37;19.80;99.90
1806;DHT22;901;48.142;11.516;2022-07-01T06:55:04;20.00;99.90
1806;DHT22;901;48.142;11.516;2022-07-01T06:57:31;20.10;99.90
1806;DHT22;901;48.142;11.516;2022-07-01T07:00:00;20.00;99.90
1806;DHT22;901;48.142;11.516;2022-07-01T07:02:27;19.90;99.90
1806;DHT22;901;48.142;11.516;2022-07-01T07:04:53;19.90;99.90
1806;DHT22;901;48.142;11.516;2022-07-01T07:07:23;20.00;99.90
1806;DHT22;901;48.142;11.516;2022-07-01T07:09:50;20.00;99.90
1806;DHT22;901;48.142;11.516;2022-07-01T07:12:17;20.00;99.90
1806;DHT22;901;48.142;11.516;2022-07-01T07:14:44;20.10;99.90
1806;DHT22;901;48.142;11.516;2022-07-01T07:17:12;20.10;99.90
1806;DHT22;901;48.142;11.516;2022-07-01T07:19:39;20.20;99.90
1806;DHT22;901;48.142;11.516;2022-07-01T07:22:06;20.30;99.90
1806;DHT22;901;48.142;11.516;2022-07-01T07:24:33;19.90;99.90
1806;DHT22;901;48.142;11.516;2022-07-01T07:26:59;19.20;99.90
1806;DHT22;901;48.142;11.516;2022-07-01T07:29:26;18.80;99.90
1806;DHT22;901;48.142;11.516;2022-07-01T07:31:53;18.50;99.90
1806;DHT22;901;48.142;11.516;2022-07-01T07:34:21;18.60;99.90
1806;DHT22;901;48.142;11.516;2022-07-01T07:36:48;18.50;99.90
1806;DHT22;901;48.142;11.516;2022-07-01T07:39:15;18.30;99.90
1806;DHT22;901;48.142;11.516;2022-07-01T07:41:42;18.10;99.90
1806;DHT22;901;48.142;11.516;2022-07-01T07:44:08;18.20;99.90
1806;DHT22;901;48.142;11.516;2022-07-01T07:46:35;18.10;99.90
1806;DHT22;901;48.142;11.516;2022-07-01T07:49:02;18.20;99.90
1806;DHT22;901;48.142;11.516;2022-07-01T07:51:30;18.20;99.90
1806;DHT22;901;48.142;11.516;2022-07-01T07:53:57;18.30;99.90
1806;DHT22;901;48.142;11.516;2022-07-01T07:56:26;18.20;99.90
1806;DHT22;901;48.142;11.516;2022-07-01T07:58:52;18.20;99.90
1806;DHT22;901;48.142;11.516;2022-07-01T08:01:19;18.30;99.90
1806;DHT22;901;48.142;11.516;2022-07-01T08:03:46;18.20;99.90
1806;DHT22;901;48.142;11.516;2022-07-01T08:06:13;18.10;99.90
1806;DHT22;901;48.142;11.516;2022-07-01T08:08:41;17.70;99.90
1806;DHT22;901;48.142;11.516;2022-07-01T08:11:08;17.20;99.90
1806;DHT22;901;48.142;11.516;2022-07-01T08:13:35;16.90;99.90
1806;DHT22;901;48.142;11.516;2022-07-01T08:16:02;16.60;99.90
1806;DHT22;901;48.142;11.516;2022-07-01T08:18:29;16.50;99.90
1806;DHT22;901;48.142;11.516;2022-07-01T08:20:56;16.20;99.90
1806;DHT22;901;48.142;11.516;2022-07-01T08:23:23;15.50;99.90
1806;DHT22;901;48.142;11.516;2022-07-01T08:25:52;15.10;99.90
1806;DHT22;901;48.142;11.516;2022-07-01T08:28:19;14.70;99.90
1806;DHT22;901;48.142;11.516;2022-07-01T08:30:46;14.40;99.90
1806;DHT22;901;48.142;11.516;2022-07-01T08:33:13;14.30;99.90
1806;DHT22;901;48.142;11.516;2022-07-01T08:35:40;14.10;99.90
1806;DHT22;901;48.142;11.516;2022-07-01T08:38:07;14.00;99.90
1806;DHT22;901;48.142;11.516;2022-07-01T08:40:34;14.00;99.90
1806;DHT22;901;48.142;11.516;2022-07-01T08:43:04;13.90;99.90
1806;DHT22;901;48.142;11.516;2022-07-01T08:45:32;13.90;99.90
1806;DHT22;901;48.142;11.516;2022-07-01T08:48:00;13.90;99.90
1806;DHT22;901;48.142;11.516;2022-07-01T08:50:28;13.90;99.90
1806;DHT22;901;48.142;11.516;2022-07-01T08:52:55;13.90;99.90
1806;DHT22;901;48.142;11.516;2022-07-01T08:55:22;13.90;99.90
1806;DHT22;901;48.142;11.516;2022-07-01T08:57:50;13.90;99.90
1806;DHT22;901;48.142;11.516;2022-07-01T09:00:18;13.90;99.90
1806;DHT22;901;48.142;11.516;2022-07-01T09:02:53;14.00;99.90
1806;DHT22;901;48.142;11.516;2022-07-01T09:05:22;14.10;99.90
1806;DHT22;901;48.142;11.516;2022-07-01T09:07:55;14.20;99.90
1806;DHT22;901;48.142;11.516;2022-07-01T09:10:23;14.30;99.90
1806;DHT22;901;48.142;11.516;2022-07-01T09:12:50;14.40;99.90
1806;DHT22;901;48.142;11.516;2022-07-01T09:15:24;14.40;99.90
1806;DHT22;901;48.142;11.516;2022-07-01T09:17:56;14.40;99.90
1806;DHT22;901;48.142;11.516;2022-07-01T09:20:25;14.30;99.90
1806;DHT22;901;48.142;11.516;2022-07-01T09:23:03;14.30;99.90
1806;DHT22;901;48.142;11.516;2022-07-01T09:25:33;14.40;99.90
1806;DHT22;901;48.142;11.516;2022-07-01T09:28:08;14.40;99.90
1806;DHT22;901;48.142;11.516;2022-07-01T09:30:36;14.40;99.90
1806;DHT22;901;48.142;11.516;2022-07-01T09:33:09;14.60;99.90
1806;DHT22;901;48.142;11.516;2022-07-01T09:35:37;14.50;99.90
1806;DHT22;901;48.142;11.516;2022-07-01T09:38:04;14.50;99.90
1806;DHT22;901;48.142;11.516;2022-07-01T09:40:49;14.50;99.90
1806;DHT22;901;48.142;11.516;2022-07-01T09:43:17;14.60;99.90
1806;DHT22;901;48.142;11.516;2022-07-01T09:46:00;14.60;99.90
1806;DHT22;901;48.142;11.516;2022-07-01T09:48:42;14.50;99.90
1806;DHT22;901;48.142;11.516;2022-07-01T09:51:11;14.50;99.90
1806;DHT22;901;48.142;11.516;2022-07-01T09:53:38;14.40;99.90
1806;DHT22;901;48.142;11.516;2022-07-01T09:56:05;14.40;99.90
1806;DHT22;901;48.142;11.516;2022-07-01T09:58:33;14.40;99.90
1806;DHT22;901;48.142;11.516;2022-07-01T10:01:03;14.40;99.90
1806;DHT22;901;48.142;11.516;2022-07-01T10:03:31;14.50;99.90
1806;DHT22;901;48.142;11.516;2022-07-01T10:06:13;14.60;99.90
1806;DHT22;901;48.142;11.516;2022-07-01T10:08:56;14.60;99.90
1806;DHT22;901;48.142;11.516;2022-07-01T10:14:22;14.80;99.90
1806;DHT22;901;48.142;11.516;2022-07-01T10:16:50;15.00;99.90
1806;DHT22;901;48.142;11.516;2022-07-01T10:19:28;15.10;99.90
1806;DHT22;901;48.142;11.516;2022-07-01T10:24:43;15.00;99.90
1806;DHT22;901;48.142;11.516;2022-07-01T10:27:20;15.10;99.90
1806;DHT22;901;48.142;11.516;2022-07-01T10:29:47;15.20;99.90
1806;DHT22;901;48.142;11.516;2022-07-01T10:32:27;15.50;99.90
1806;DHT22;901;48.142;11.516;2022-07-01T10:35:04;15.70;99.90
1806;DHT22;901;48.142;11.516;2022-07-01T10:37:31;15.80;99.90
1806;DHT22;901;48.142;11.516;2022-07-01T10:39:59;16.00;99.90
1806;DHT22;901;48.142;11.516;2022-07-01T10:42:30;16.10;99.90
1806;DHT22;901;48.142;11.516;2022-07-01T10:45:02;16.30;99.90
1806;DHT22;901;48.142;11.516;2022-07-01T10:47:31;16.40;99.90
1806;DHT22;901;48.142;11.516;2022-07-01T10:49:59;16.50;99.90
1806;DHT22;901;48.142;11.516;2022-07-01T10:52:29;16.50;99.90
1806;DHT22;901;48.142;11.516;2022-07-01T10:54:57;16.40;99.90
1806;DHT22;901;48.142;11.516;2022-07-01T10:57:34;16.30;99.90
1806;DHT22;901;48.142;11.516;2022-07-01T11:00:34;16.10;99.90
1806;DHT22;901;48.142;11.516;2022-07-01T11:03:21;16.00;99.90
1806;DHT22;901;48.142;11.516;2022-07-01T11:05:51;15.90;99.90
1806;DHT22;901;48.142;11.516;2022-07-01T11:08:18;15.90;99.90
1806;DHT22;901;48.142;11.516;2022-07-01T11:10:50;15.90;99.90
1806;DHT22;901;48.142;11.516;2022-07-01T11:13:19;16.00;99.90
1806;DHT22;901;48.142;11.516;2022-07-01T11:15:46;15.90;99.90
1806;DHT22;901;48.142;11.516;2022-07-01T11:18:15;15.70;99.90
1806;DHT22;901;48.142;11.516;2022-07-01T11:20:44;15.60;99.90
1806;DHT22;901;48.142;11.516;2022-07-01T11:23:11;15.40;99.90
1806;DHT22;901;48.142;11.516;2022-07-01T11:25:39;15.40;99.90
1806;DHT22;901;48.142;11.516;2022-07-01T11:28:06;15.40;99.90
1806;DHT22;901;48.142;11.516;2022-07-01T11:30:33;15.30;99.90
1806;DHT22;901;48.142;11.516;2022-07-01T11:33:00;15.50;99.90
1806;DHT22;901;48.142;11.516;2022-07-01T11:35:28;15.50;99.90
1806;DHT22;901;48.142;11.516;2022-07-01T11:38:16;15.40;99.90
1806;DHT22;901;48.142;11.516;2022-07-01T11:41:02;15.50;99.90
1806;DHT22;901;48.142;11.516;2022-07-01T11:43:32;15.60;99.90
1806;DHT22;901;48.142;11.516;2022-07-01T11:46:01;15.60;99.90
1806;DHT22;901;48.142;11.516;2022-07-01T11:48:36;15.70;99.90
1806;DHT22;901;48.142;11.516;2022-07-01T11:51:10;15.70;99.90
1806;DHT22;901;48.142;11.516;2022-07-01T11:53:41;15.80;99.90
1806;DHT22;901;48.142;11.516;2022-07-01T11:56:08;15.80;99.90
1806;DHT22;901;48.142;11.516;2022-07-01T11:58:47;15.80;99.90
1806;DHT22;901;48.142;11.516;2022-07-01T12:01:26;15.70;99.90
1806;DHT22;901;48.142;11.516;2022-07-01T12:03:54;15.80;99.90
1806;DHT22;901;48.142;11.516;2022-07-01T12:06:22;15.80;99.90
1806;DHT22;901;48.142;11.516;2022-07-01T12:08:52;15.90;99.90
1806;DHT22;901;48.142;11.516;2022-07-01T12:11:21;15.90;99.90
1806;DHT22;901;48.142;11.516;2022-07-01T12:13:49;16.00;99.90
1806;DHT22;901;48.142;11.516;2022-07-01T12:16:16;16.10;99.90
1806;DHT22;901;48.142;11.516;2022-07-01T12:18:54;16.10;99.90
1806;DHT22;901;48.142;11.516;2022-07-01T12:21:21;16.10;99.90
1806;DHT22;901;48.142;11.516;2022-07-01T12:24:08;16.10;99.90
1806;DHT22;901;48.142;11.516;2022-07-01T12:26:46;16.00;99.90
1806;DHT22;901;48.142;11.516;2022-07-01T12:29:14;16.00;99.90
1806;DHT22;901;48.142;11.516;2022-07-01T12:31:41;16.00;99.90
1806;DHT22;901;48.142;11.516;2022-07-01T12:34:07;16.00;99.90
1806;DHT22;901;48.142;11.516;2022-07-01T12:36:34;15.90;99.90
1806;DHT22;901;48.142;11.516;2022-07-01T12:39:04;16.00;99.90
1806;DHT22;901;48.142;11.516;2022-07-01T12:41:33;16.10;99.90
1806;DHT22;901;48.142;11.516;2022-07-01T12:44:01;16.00;99.90
1806;DHT22;901;48.142;11.516;2022-07-01T12:46:28;15.80;99.90
1806;DHT22;901;48.142;11.516;2022-07-01T12:48:56;15.70;99.90
1806;DHT22;901;48.142;11.516;2022-07-01T12:51:29;15.70;99.90
1806;DHT22;901;48.142;11.516;2022-07-01T12:53:57;15.60;99.90
1806;DHT22;901;48.142;11.516;2022-07-01T12:56:25;15.60;99.90
1806;DHT22;901;48.142;11.516;2022-07-01T12:58:54;15.40;99.90
1806;DHT22;901;48.142;11.516;2022-07-01T13:01:21;15.30;99.90
1806;DHT22;901;48.142;11.516;2022-07-01T13:03:48;15.40;99.90
1806;DHT22;901;48.142;11.516;2022-07-01T13:06:15;15.60;99.90
1806;DHT22;901;48.142;11.516;2022-07-01T13:08:42;15.80;99.90
1806;DHT22;901;48.142;11.516;2022-07-01T13:11:09;15.90;99.90
1806;DHT22;901;48.142;11.516;2022-07-01T13:13:35;16.00;99.90
1806;DHT22;901;48.142;11.516;2022-07-01T13:16:04;16.10;99.90
1806;DHT22;901;48.142;11.516;2022-07-01T13:18:31;16.20;99.90
1806;DHT22;901;48.142;11.516;2022-07-01T13:20:58;16.20;99.90
1806;DHT22;901;48.142;11.516;2022-07-01T13:23:25;16.30;99.90
1806;DHT22;901;48.142;11.516;2022-07-01T13:25:52;16.20;99.90
1806;DHT22;901;48.142;11.516;2022-07-01T13:28:19;16.10;99.90
1806;DHT22;901;48.142;11.516;2022-07-01T13:30:45;16.00;99.90
1806;DHT22;901;48.142;11.516;2022-07-01T13:33:14;16.10;99.90
1806;DHT22;901;48.142;11.516;2022-07-01T13:35:41;16.20;99.90
1806;DHT22;901;48.142;11.516;2022-07-01T13:38:08;16.30;99.90
1806;DHT22;901;48.142;11.516;2022-07-01T13:40:35;16.20;99.90
1806;DHT22;901;48.142;11.516;2022-07-01T13:43:02;16.30;99.90
1806;DHT22;901;48.142;11.516;2022-07-01T13:45:29;16.20;99.90
1806;DHT22;901;48.142;11.516;2022-07-01T13:47:56;16.30;99.90
1806;DHT22;901;48.142;11.516;2022-07-01T13:50:24;16.30;99.90
1806;DHT22;901;48.142;11.516;2022-07-01T13:52:51;16.20;99.90
1806;DHT22;901;48.142;11.516;2022-07-01T13:55:18;16.40;99.90
1806;DHT22;901;48.142;11.516;2022-07-01T13:57:45;16.40;99.90
1806;DHT22;901;48.142;11.516;2022-07-01T14:00:13;16.30;99.90
1806;DHT22;901;48.142;11.516;2022-07-01T14:02:40;16.20;99.90
1806;DHT22;901;48.142;11.516;2022-07-01T14:05:07;16.30;99.90
1806;DHT22;901;48.142;11.516;2022-07-01T14:07:36;16.30;99.90
1806;DHT22;901;48.142;11.516;2022-07-01T14:10:03;16.10;99.90
1806;DHT22;901;48.142;11.516;2022-07-01T14:12:30;16.10;99.90
1806;DHT22;901;48.142;11.516;2022-07-01T14:14:58;16.10;99.90
1806;DHT22;901;48.142;11.516;2022-07-01T14:17:25;16.30;99.90
1806;DHT22;901;48.142;11.516;2022-07-01T14:19:52;16.30;99.90
1806;DHT22;901;48.142;11.516;2022-07-01T14:22:21;16.40;99.90
1806;DHT22;901;48.142;11.516;2022-07-01T14:24:50;16.40;99.90
1806;DHT22;901;48.142;11.516;2022-07-01T14:27:16;16.50;99.90
1806;DHT22;901;48.142;11.516;2022-07-01T14:29:44;16.60;99.90
1806;DHT22;901;48.142;11.516;2022-07-01T14:32:11;16.70;99.90
1806;DHT22;901;48.142;11.516;2022-07-01T14:34:38;16.70;99.90
1806;DHT22;901;48.142;11.516;2022-07-01T14:37:05;16.80;99.90
1806;DHT22;901;48.142;11.516;2022-07-01T14:39:32;16.80;99.90
1806;DHT22;901;48.142;11.516;2022-07-01T14:42:00;16.70;99.90
1806;DHT22;901;48.142;11.516;2022-07-01T14:44:27;16.60;99.90
1806;DHT22;901;48.142;11.516;2022-07-01T14:46:54;16.60;99.90
1806;DHT22;901;48.142;11.516;2022-07-01T14:49:21;16.60;99.90
1806;DHT22;901;48.142;11.516;2022-07-01T14:51:49;16.70;99.90
1806;DHT22;901;48.142;11.516;2022-07-01T14:54:16;16.70;99.90
1806;DHT22;901;48.142;11.516;2022-07-01T14:56:43;17.00;99.90
1806;DHT22;901;48.142;11.516;2022-07-01T14:59:11;17.10;99.90
1806;DHT22;901;48.142;11.516;2022-07-01T15:01:39;17.20;99.90
1806;DHT22;901;48.142;11.516;2022-07-01T15:04:06;17.20;99.90
1806;DHT22;901;48.142;11.516;2022-07-01T15:06:33;17.10;99.90
1806;DHT22;901;48.142;11.516;2022-07-01T15:09:00;17.00;99.90
1806;DHT22;901;48.142;11.516;2022-07-01T15:11:27;16.80;99.90
1806;DHT22;901;48.142;11.516;2022-07-01T15:13:54;16.70;99.90
1806;DHT22;901;48.142;11.516;2022-07-01T15:16:22;16.60;99.90
1806;DHT22;901;48.142;11.516;2022-07-01T15:18:50;16.80;99.90
1806;DHT22;901;48.142;11.516;2022-07-01T15:21:17;16.90;99.90
1806;DHT22;901;48.142;11.516;2022-07-01T15:23:44;17.00;99.90
1806;DHT22;901;48.142;11.516;2022-07-01T15:26:11;17.30;99.90
1806;DHT22;901;48.142;11.516;2022-07-01T15:28:38;17.50;99.90
1806;DHT22;901;48.142;11.516;2022-07-01T15:31:06;17.90;99.90
1806;DHT22;901;48.142;11.516;2022-07-01T15:33:35;18.20;99.90
1806;DHT22;901;48.142;11.516;2022-07-01T15:36:03;18.40;99.90
1806;DHT22;901;48.142;11.516;2022-07-01T15:38:30;18.60;99.90
1806;DHT22;901;48.142;11.516;2022-07-01T15:40:56;18.70;99.90
1806;DHT22;901;48.142;11.516;2022-07-01T15:43:23;18.80;99.90
1806;DHT22;901;48.142;11.516;2022-07-01T15:45:50;18.90;99.90
1806;DHT22;901;48.142;11.516;2022-07-01T15:48:17;18.90;99.90
1806;DHT22;901;48.142;11.516;2022-07-01T15:50:45;18.80;99.90
1806;DHT22;901;48.142;11.516;2022-07-01T15:53:13;18.80;99.90
1806;DHT22;901;48.142;11.516;2022-07-01T15:55:41;18.80;99.90
1806;DHT22;901;48.142;11.516;2022-07-01T15:58:09;18.80;99.90
1806;DHT22;901;48.142;11.516;2022-07-01T16:00:36;18.70;99.90
1806;DHT22;901;48.142;11.516;2022-07-01T16:03:04;18.70;99.90
1806;DHT22;901;48.142;11.516;2022-07-01T16:05:31;18.70;99.90
1806;DHT22;901;48.142;11.516;2022-07-01T16:08:01;18.60;99.90
1806;DHT22;901;48.142;11.516;2022-07-01T16:10:34;18.60;99.90
1806;DHT22;901;48.142;11.516;2022-07-01T16:13:02;18.30;99.90
1806;DHT22;901;48.142;11.516;2022-07-01T16:15:33;18.20;99.90